Time;durP1;ratioP1;P1;durP2;ratioP2;P2;SDS_P1;SDS_P2;PMS_P1;PMS_P2;Temp;Humidity;BMP_temperature;BMP_pressure;BME280_temperature;BME280_humidity;BME280_pressure;Samples;Min_cycle;Max_cycle;Signal;HPM_P1;HPM_P2
2021/12/03 00:01:05;;;;;;;183.70;83.05;;;0.80;99.90;;;;;;4971711;28;20427;-58
2021/12/03 00:03:31;;;;;;;180.85;81.95;;;0.80;99.90;;;;;;4971967;28;20420;-57
2021/12/03 00:05:58;;;;;;;179.68;81.90;;;0.80;99.90;;;;;;4972030;28;20498;-58
2021/12/03 00:08:26;;;;;;;171.63;79.85;;;0.90;99.90;;;;;;4971418;28;20416;-56
2021/12/03 00:10:56;;;;;;;149.68;71.38;;;0.90;99.90;;;;;;4971850;28;20420;-57
2021/12/03 00:13:23;;;;;;;146.32;69.43;;;1.00;99.90;;;;;;4971605;28;20431;-58
2021/12/03 00:15:51;;;;;;;148.45;71.32;;;0.90;99.90;;;;;;4972001;28;20423;-58
2021/12/03 00:18:18;;;;;;;159.37;74.77;;;0.90;99.90;;;;;;4971547;28;21241;-58
2021/12/03 00:20:45;;;;;;;150.73;72.50;;;0.80;99.90;;;;;;4971947;28;20419;-53
2021/12/03 00:23:12;;;;;;;151.33;73.47;;;0.80;99.90;;;;;;4971463;28;20428;-58
2021/12/03 00:25:40;;;;;;;157.77;74.28;;;0.80;99.90;;;;;;4974605;28;21088;-57
2021/12/03 00:28:08;;;;;;;141.68;69.50;;;0.80;99.90;;;;;;4975868;28;20466;-58
2021/12/03 00:30:36;;;;;;;137.52;68.70;;;0.90;99.90;;;;;;4975694;28;20423;-56
2021/12/03 00:33:04;;;;;;;131.35;64.40;;;0.80;99.90;;;;;;4975236;28;20420;-57
2021/12/03 00:35:32;;;;;;;136.55;67.70;;;0.90;99.90;;;;;;4975239;28;20451;-57
2021/12/03 00:37:59;;;;;;;121.43;63.08;;;0.90;99.90;;;;;;4975341;28;20494;-57
2021/12/03 00:40:29;;;;;;;108.55;57.65;;;1.00;99.90;;;;;;4975116;28;20416;-57
2021/12/03 00:42:56;;;;;;;99.78;56.88;;;1.10;99.90;;;;;;4975428;28;20424;-58
2021/12/03 00:45:24;;;;;;;105.15;58.17;;;1.00;99.90;;;;;;4975492;28;20420;-58
2021/12/03 00:47:51;;;;;;;113.70;60.45;;;0.90;99.90;;;;;;4975434;28;20434;-58
2021/12/03 00:50:22;;;;;;;91.93;53.97;;;0.90;99.90;;;;;;4975452;28;20434;-55
2021/12/03 00:52:50;;;;;;;100.20;55.45;;;0.90;99.90;;;;;;4974455;28;20420;-58
2021/12/03 00:55:17;;;;;;;94.50;54.63;;;0.80;99.90;;;;;;4975340;28;20435;-54
2021/12/03 00:57:44;;;;;;;101.55;58.78;;;0.80;99.90;;;;;;4975130;28;20425;-58
2021/12/03 01:00:15;;;;;;;94.40;54.90;;;0.80;99.90;;;;;;4975236;28;20423;-58
2021/12/03 01:02:43;;;;;;;96.47;56.00;;;0.70;99.90;;;;;;4974526;28;20424;-55
2021/12/03 01:05:10;;;;;;;94.20;56.65;;;0.60;99.90;;;;;;4975057;28;20424;-57
2021/12/03 01:07:38;;;;;;;100.43;58.70;;;0.60;99.90;;;;;;4974750;28;20833;-56
2021/12/03 01:10:05;;;;;;;100.03;60.40;;;0.50;99.90;;;;;;4975027;28;20415;-57
2021/12/03 01:12:32;;;;;;;101.97;59.70;;;0.50;99.90;;;;;;4974459;28;20897;-58
2021/12/03 01:14:59;;;;;;;104.65;60.25;;;0.50;99.90;;;;;;4974766;28;20540;-55
2021/12/03 01:17:26;;;;;;;108.37;60.93;;;0.40;99.90;;;;;;4974808;28;20466;-58
2021/12/03 01:19:54;;;;;;;114.93;63.15;;;0.50;99.90;;;;;;4974524;28;20474;-59
2021/12/03 01:22:20;;;;;;;115.32;62.67;;;0.50;99.90;;;;;;4974479;28;20817;-58
2021/12/03 01:24:47;;;;;;;102.70;59.83;;;0.50;99.90;;;;;;4974727;28;20451;-58
2021/12/03 01:27:14;;;;;;;90.45;54.75;;;0.60;99.90;;;;;;4974868;28;20423;-56
2021/12/03 01:29:40;;;;;;;93.18;54.70;;;0.50;99.90;;;;;;4974619;28;20825;-58
2021/12/03 01:32:08;;;;;;;81.82;52.35;;;0.60;99.90;;;;;;4974042;28;20885;-57
2021/12/03 01:34:34;;;;;;;85.28;52.80;;;0.70;99.90;;;;;;4974342;28;20424;-59
2021/12/03 01:37:02;;;;;;;80.05;51.03;;;0.60;99.90;;;;;;4974019;28;20431;-55
2021/12/03 01:39:29;;;;;;;74.40;47.75;;;0.70;99.90;;;;;;4974454;28;20912;-57
2021/12/03 01:41:56;;;;;;;69.20;46.63;;;0.70;99.90;;;;;;4974070;28;20412;-59
2021/12/03 01:44:23;;;;;;;66.82;44.03;;;0.80;99.90;;;;;;4974378;28;20500;-58
2021/12/03 01:46:50;;;;;;;78.25;47.75;;;0.80;99.90;;;;;;4974304;28;20427;-58
2021/12/03 01:49:16;;;;;;;83.07;51.03;;;0.70;99.90;;;;;;4973981;28;20923;-55
2021/12/03 01:51:43;;;;;;;85.13;50.33;;;0.60;99.90;;;;;;4974025;28;20424;-58
2021/12/03 01:54:11;;;;;;;85.82;50.85;;;0.70;99.90;;;;;;4974163;28;20468;-57
2021/12/03 01:56:39;;;;;;;85.30;48.97;;;0.70;99.90;;;;;;4974127;28;20888;-58
2021/12/03 01:59:06;;;;;;;87.55;49.95;;;0.70;99.90;;;;;;4974043;28;20972;-58
2021/12/03 02:01:34;;;;;;;82.53;50.38;;;0.70;99.90;;;;;;4973708;28;20413;-56
2021/12/03 02:04:02;;;;;;;76.78;46.13;;;0.80;99.90;;;;;;4973935;28;20502;-55
2021/12/03 02:06:29;;;;;;;82.18;48.35;;;0.90;99.90;;;;;;4974338;28;20432;-57
2021/12/03 02:08:57;;;;;;;83.68;48.95;;;0.90;99.90;;;;;;4974150;28;20520;-58
2021/12/03 02:11:26;;;;;;;76.85;45.78;;;0.90;99.90;;;;;;4973643;28;20963;-57
2021/12/03 02:13:53;;;;;;;73.18;44.90;;;1.00;99.90;;;;;;4973911;28;20451;-53
2021/12/03 02:16:20;;;;;;;83.72;48.30;;;1.00;99.90;;;;;;4973693;28;20836;-58
2021/12/03 02:18:48;;;;;;;89.38;48.35;;;0.90;99.90;;;;;;4973868;28;20440;-58
2021/12/03 02:21:17;;;;;;;78.22;46.45;;;1.00;99.90;;;;;;4973235;28;20423;-54
2021/12/03 02:23:44;;;;;;;71.93;43.20;;;1.10;99.90;;;;;;4973647;28;20420;-58
2021/12/03 02:26:12;;;;;;;72.85;43.90;;;1.20;99.90;;;;;;4973603;28;20420;-55
2021/12/03 02:28:42;;;;;;;77.03;44.87;;;1.20;99.90;;;;;;4973377;28;20955;-56
2021/12/03 02:31:10;;;;;;;78.05;44.88;;;1.20;99.90;;;;;;4973185;28;20482;-57
2021/12/03 02:33:37;;;;;;;78.00;45.20;;;1.20;99.90;;;;;;4973429;28;20486;-56
2021/12/03 02:36:05;;;;;;;76.20;44.58;;;1.10;99.90;;;;;;4973544;28;20428;-58
2021/12/03 02:38:33;;;;;;;80.68;46.25;;;1.10;99.90;;;;;;4973318;28;20458;-57
2021/12/03 02:41:00;;;;;;;89.13;48.40;;;1.10;99.90;;;;;;4973428;28;20424;-58
2021/12/03 02:43:27;;;;;;;80.22;45.60;;;1.10;99.90;;;;;;4972616;28;20424;-58
2021/12/03 02:45:56;;;;;;;85.57;46.53;;;1.10;99.90;;;;;;4973290;28;20424;-56
2021/12/03 02:48:23;;;;;;;85.57;47.03;;;1.10;99.90;;;;;;4972583;28;20472;-56
2021/12/03 02:50:50;;;;;;;82.80;45.83;;;1.10;99.90;;;;;;4973147;28;20461;-58
2021/12/03 02:53:17;;;;;;;89.55;46.33;;;1.20;99.90;;;;;;4972728;28;20432;-58
2021/12/03 02:55:45;;;;;;;96.15;48.05;;;1.20;99.90;;;;;;4972954;28;20435;-55
2021/12/03 02:58:12;;;;;;;93.85;48.25;;;1.10;99.90;;;;;;4972936;28;20844;-57
2021/12/03 03:00:40;;;;;;;96.97;50.75;;;1.10;99.90;;;;;;4972969;28;20424;-57
2021/12/03 03:03:07;;;;;;;96.82;51.22;;;1.10;99.90;;;;;;4972695;28;20478;-57
2021/12/03 03:05:34;;;;;;;98.35;50.33;;;1.10;99.90;;;;;;4972741;28;20428;-55
2021/12/03 03:08:00;;;;;;;91.88;49.55;;;1.20;99.90;;;;;;4972912;28;20416;-57
2021/12/03 03:10:33;;;;;;;94.65;48.63;;;1.20;99.90;;;;;;4972720;28;20428;-58
2021/12/03 03:13:02;;;;;;;95.63;49.70;;;1.20;99.90;;;;;;4972646;28;20515;-57
2021/12/03 03:15:28;;;;;;;89.72;47.55;;;1.20;99.90;;;;;;4972838;28;20424;-56
2021/12/03 03:17:56;;;;;;;87.93;45.40;;;1.20;99.90;;;;;;4972545;28;20431;-55
2021/12/03 03:20:23;;;;;;;81.70;44.55;;;1.30;99.90;;;;;;4972742;28;20416;-56
2021/12/03 03:22:50;;;;;;;71.03;40.78;;;1.40;99.90;;;;;;4972013;28;20428;-58
2021/12/03 03:25:18;;;;;;;75.13;40.92;;;1.50;99.90;;;;;;4972469;28;20932;-58
2021/12/03 03:27:46;;;;;;;78.75;42.28;;;1.40;99.90;;;;;;4972675;28;20482;-58
2021/12/03 03:30:16;;;;;;;74.75;39.40;;;1.40;99.90;;;;;;4972410;28;20423;-58
2021/12/03 03:32:44;;;;;;;75.18;38.35;;;1.50;99.90;;;;;;4972256;28;20452;-58
2021/12/03 03:35:12;;;;;;;80.28;40.33;;;1.50;99.90;;;;;;4972220;28;20424;-59
2021/12/03 03:37:39;;;;;;;83.63;39.70;;;1.40;99.90;;;;;;4972176;28;20402;-58
2021/12/03 03:40:07;;;;;;;81.77;39.10;;;1.30;99.90;;;;;;4972577;28;20485;-56
2021/12/03 03:42:34;;;;;;;88.77;40.87;;;1.20;99.90;;;;;;4972478;28;20419;-58
2021/12/03 03:45:01;;;;;;;92.15;42.97;;;1.20;99.90;;;;;;4972950;28;20901;-58
2021/12/03 03:47:30;;;;;;;85.00;42.28;;;1.20;99.90;;;;;;4972960;28;20467;-58
2021/12/03 03:49:56;;;;;;;95.15;42.97;;;1.30;99.90;;;;;;4972748;28;20420;-58
2021/12/03 03:52:23;;;;;;;91.75;41.97;;;1.20;99.90;;;;;;4972354;28;20431;-58
2021/12/03 03:54:50;;;;;;;84.82;40.28;;;1.20;99.90;;;;;;4973113;28;20416;-59
2021/12/03 03:57:17;;;;;;;89.50;41.17;;;1.30;99.90;;;;;;4972984;28;20424;-58
2021/12/03 03:59:43;;;;;;;82.03;39.88;;;1.30;99.90;;;;;;4971864;28;20988;-58
2021/12/03 04:02:10;;;;;;;81.22;39.28;;;1.30;99.90;;;;;;4971511;28;20427;-58
2021/12/03 04:04:38;;;;;;;90.88;41.45;;;1.30;99.90;;;;;;4971784;28;20420;-57
2021/12/03 04:07:05;;;;;;;97.40;41.33;;;1.20;99.90;;;;;;4971898;28;20947;-56
2021/12/03 04:09:32;;;;;;;91.28;41.05;;;1.30;99.90;;;;;;4972231;28;20467;-58
2021/12/03 04:11:58;;;;;;;101.18;42.72;;;1.20;99.90;;;;;;4971815;28;20424;-52
2021/12/03 04:14:25;;;;;;;97.38;41.60;;;1.10;99.90;;;;;;4971763;28;20428;-55
2021/12/03 04:16:52;;;;;;;96.90;41.58;;;1.30;99.90;;;;;;4971947;28;20447;-58
2021/12/03 04:19:19;;;;;;;98.75;41.78;;;1.20;99.90;;;;;;4971547;28;20463;-58
2021/12/03 04:21:47;;;;;;;93.70;40.47;;;1.30;99.90;;;;;;4971449;28;20478;-58
2021/12/03 04:24:14;;;;;;;86.88;39.10;;;1.30;99.90;;;;;;4971566;28;20427;-57
2021/12/03 04:26:40;;;;;;;92.47;39.85;;;1.30;99.90;;;;;;4971862;28;20683;-57
2021/12/03 04:29:07;;;;;;;82.80;38.30;;;1.40;99.90;;;;;;4971733;28;20420;-57
2021/12/03 04:31:34;;;;;;;74.93;36.88;;;1.40;99.90;;;;;;4971072;28;20923;-58
2021/12/03 04:34:01;;;;;;;77.28;36.50;;;1.40;99.90;;;;;;4971840;28;20427;-54
2021/12/03 04:36:27;;;;;;;73.90;36.35;;;1.50;99.90;;;;;;4971704;28;20454;-57
2021/12/03 04:38:55;;;;;;;75.83;35.00;;;1.40;99.90;;;;;;4971701;28;20486;-57
2021/12/03 04:41:22;;;;;;;63.75;32.55;;;1.40;99.90;;;;;;4971400;28;20419;-53
2021/12/03 04:43:49;;;;;;;57.60;30.70;;;1.40;99.90;;;;;;4971318;28;20506;-58
2021/12/03 04:46:15;;;;;;;64.10;31.48;;;1.40;99.90;;;;;;4971122;28;20424;-57
2021/12/03 04:48:42;;;;;;;60.50;30.23;;;1.40;99.90;;;;;;4971143;28;20944;-57
2021/12/03 04:51:09;;;;;;;54.05;31.15;;;1.50;99.90;;;;;;4971325;28;20838;-56
2021/12/03 04:53:36;;;;;;;57.53;30.77;;;1.60;99.90;;;;;;4971460;28;20829;-56
2021/12/03 04:56:04;;;;;;;58.77;30.33;;;1.60;99.90;;;;;;4971537;28;20844;-57
2021/12/03 04:58:31;;;;;;;56.65;28.98;;;1.60;99.90;;;;;;4971314;28;20444;-58
2021/12/03 05:00:58;;;;;;;53.90;29.42;;;1.50;99.90;;;;;;4971175;28;20467;-58
2021/12/03 05:03:26;;;;;;;58.60;30.58;;;1.70;99.90;;;;;;4971572;28;20427;-57
2021/12/03 05:05:55;;;;;;;53.55;28.55;;;1.60;99.90;;;;;;4971854;28;20427;-57
2021/12/03 05:08:23;;;;;;;53.88;28.95;;;1.70;99.90;;;;;;4971357;28;20824;-58
2021/12/03 05:10:50;;;;;;;51.50;28.70;;;1.80;99.90;;;;;;4972764;28;20503;-58
2021/12/03 05:13:20;;;;;;;48.35;27.40;;;1.80;99.90;;;;;;4974436;28;20474;-57
2021/12/03 05:15:48;;;;;;;46.40;27.95;;;1.80;99.90;;;;;;4974985;28;20486;-58
2021/12/03 05:18:17;;;;;;;49.00;27.88;;;1.80;99.90;;;;;;4972814;28;20972;-56
2021/12/03 05:20:45;;;;;;;47.85;28.40;;;1.60;99.90;;;;;;4993800;28;20477;-57
2021/12/03 05:23:13;;;;;;;54.00;29.50;;;1.60;99.90;;;;;;4993752;28;20481;-58
2021/12/03 05:25:40;;;;;;;49.47;27.95;;;1.60;99.90;;;;;;4993990;28;20418;-58
2021/12/03 05:28:07;;;;;;;51.75;29.15;;;1.80;99.90;;;;;;4994004;28;20492;-58
2021/12/03 05:30:36;;;;;;;47.05;27.05;;;1.70;99.90;;;;;;4974217;28;20416;-58
2021/12/03 05:33:04;;;;;;;47.58;27.67;;;1.90;99.90;;;;;;4973609;28;20416;-60
2021/12/03 05:35:32;;;;;;;51.10;26.73;;;1.80;99.90;;;;;;4974547;28;20419;-58
2021/12/03 05:37:59;;;;;;;46.58;26.60;;;1.80;99.90;;;;;;4974095;28;20428;-58
2021/12/03 05:40:26;;;;;;;44.20;26.05;;;1.80;99.90;;;;;;4973893;28;20432;-56
2021/12/03 05:42:52;;;;;;;41.25;25.23;;;2.00;99.90;;;;;;4978629;28;20452;-59
2021/12/03 05:45:22;;;;;;;49.90;27.77;;;1.90;99.90;;;;;;4974191;28;20427;-59
2021/12/03 05:47:50;;;;;;;45.28;27.63;;;1.70;99.90;;;;;;4974204;28;20489;-58
2021/12/03 05:50:18;;;;;;;49.47;28.23;;;1.90;99.90;;;;;;4973946;28;20416;-59
2021/12/03 05:52:46;;;;;;;47.88;27.70;;;1.80;99.90;;;;;;4973843;28;20420;-60
2021/12/03 05:55:14;;;;;;;48.50;27.45;;;1.90;99.90;;;;;;4974122;28;20427;-58
2021/12/03 05:57:42;;;;;;;47.90;26.92;;;1.90;99.90;;;;;;4974203;28;20812;-52
2021/12/03 06:00:12;;;;;;;49.38;26.95;;;1.90;99.90;;;;;;4973866;28;20470;-58
2021/12/03 06:02:38;;;;;;;49.22;27.48;;;1.80;99.90;;;;;;4973530;28;20428;-55
2021/12/03 06:05:08;;;;;;;48.30;27.30;;;1.80;99.90;;;;;;4972927;28;20445;-58
2021/12/03 06:07:34;;;;;;;42.60;26.00;;;1.80;99.90;;;;;;4973827;28;20415;-60
2021/12/03 06:10:01;;;;;;;45.78;27.10;;;1.90;99.90;;;;;;4973261;28;20878;-57
2021/12/03 06:12:28;;;;;;;49.93;27.77;;;1.90;99.90;;;;;;4986812;28;20473;-59
2021/12/03 06:14:55;;;;;;;46.83;27.40;;;1.90;99.90;;;;;;4993253;28;20419;-59
2021/12/03 06:17:21;;;;;;;46.97;26.38;;;1.90;99.90;;;;;;4983762;28;20481;-60
2021/12/03 06:19:48;;;;;;;44.85;25.23;;;1.90;99.90;;;;;;4970693;28;20432;-60
2021/12/03 06:22:16;;;;;;;43.40;26.00;;;1.90;99.90;;;;;;4971371;28;20428;-57
2021/12/03 06:24:43;;;;;;;44.35;25.52;;;2.00;99.90;;;;;;4972941;28;20939;-60
2021/12/03 06:27:10;;;;;;;43.42;25.30;;;2.00;99.90;;;;;;4973013;28;20446;-58
2021/12/03 06:29:36;;;;;;;45.88;26.42;;;2.10;99.90;;;;;;4972938;28;20423;-55
2021/12/03 06:32:04;;;;;;;45.00;25.23;;;2.00;99.90;;;;;;4983181;28;20422;-58
2021/12/03 06:34:30;;;;;;;44.92;26.15;;;2.10;99.90;;;;;;4992056;28;20418;-58
2021/12/03 06:36:57;;;;;;;39.13;23.90;;;2.10;99.90;;;;;;4992735;28;20481;-55
2021/12/03 06:39:25;;;;;;;43.38;25.02;;;2.20;97.70;;;;;;4992049;28;20437;-59
2021/12/03 06:41:52;;;;;;;45.05;24.70;;;2.20;74.30;;;;;;4992025;28;20483;-57
2021/12/03 06:44:18;;;;;;;44.80;24.45;;;2.20;58.80;;;;;;4992118;28;20422;-59
2021/12/03 06:46:45;;;;;;;41.90;24.67;;;2.20;54.60;;;;;;4992127;28;20418;-56
2021/12/03 06:49:12;;;;;;;46.75;24.92;;;2.20;52.80;;;;;;4991650;28;21118;-62
2021/12/03 06:51:42;;;;;;;52.40;26.27;;;2.20;59.30;;;;;;4992111;28;20423;-61
2021/12/03 06:54:10;;;;;;;49.38;25.60;;;2.20;80.90;;;;;;5059195;23;20931;-61
2021/12/03 06:56:47;;;;;;;50.65;26.65;;;2.20;72.10;;;;;;4992289;28;20418;-61
2021/12/03 06:59:16;;;;;;;45.90;26.37;;;2.20;68.30;;;;;;4991984;28;20501;-64
2021/12/03 07:01:42;;;;;;;49.40;26.70;;;2.10;85.70;;;;;;4991234;28;20418;-61
2021/12/03 07:04:09;;;;;;;46.60;25.65;;;2.10;99.90;;;;;;4992096;28;20429;-60
2021/12/03 07:06:36;;;;;;;47.10;25.95;;;2.20;99.90;;;;;;4991902;28;20427;-60
2021/12/03 07:09:04;;;;;;;46.17;25.98;;;2.20;99.90;;;;;;4991322;28;20899;-60
2021/12/03 07:11:31;;;;;;;53.00;27.15;;;2.20;99.90;;;;;;4991359;28;20425;-61
2021/12/03 07:13:59;;;;;;;47.30;26.45;;;2.20;99.90;;;;;;4991446;28;20429;-59
2021/12/03 07:16:26;;;;;;;47.17;24.27;;;2.20;99.90;;;;;;4991742;28;20429;-60
2021/12/03 07:18:53;;;;;;;46.65;24.98;;;2.30;99.90;;;;;;4992203;28;20429;-60
2021/12/03 07:21:20;;;;;;;54.78;27.55;;;2.20;99.90;;;;;;4991359;28;20418;-61
2021/12/03 07:23:49;;;;;;;51.85;26.13;;;2.20;99.90;;;;;;4991647;28;20422;-61
2021/12/03 07:26:16;;;;;;;47.70;25.70;;;2.20;99.90;;;;;;4991647;28;20522;-62
2021/12/03 07:28:43;;;;;;;46.20;25.10;;;2.20;99.90;;;;;;4991014;28;20422;-62
2021/12/03 07:31:12;;;;;;;49.88;26.08;;;2.30;99.90;;;;;;4991462;28;20454;-61
2021/12/03 07:33:39;;;;;;;47.20;24.52;;;2.40;99.90;;;;;;4991341;28;20509;-61
2021/12/03 07:36:06;;;;;;;43.37;24.53;;;2.50;99.90;;;;;;4991619;28;20511;-61
2021/12/03 07:38:34;;;;;;;48.95;25.98;;;2.50;96.60;;;;;;4991014;28;20422;-61
2021/12/03 07:41:02;;;;;;;48.10;25.60;;;2.50;87.90;;;;;;4991293;28;20434;-61
2021/12/03 07:43:28;;;;;;;53.83;26.88;;;2.40;63.30;;;;;;4990622;28;20469;-61
2021/12/03 07:45:55;;;;;;;46.03;25.15;;;2.50;84.10;;;;;;4991195;28;20434;-60
2021/12/03 07:48:23;;;;;;;50.47;25.80;;;2.40;73.50;;;;;;4991215;28;20418;-63
2021/12/03 07:50:52;;;;;;;50.25;26.27;;;2.40;86.70;;;;;;4991232;28;20756;-63
2021/12/03 07:53:19;;;;;;;49.10;26.02;;;2.40;90.20;;;;;;4990916;28;20454;-63
2021/12/03 07:55:46;;;;;;;45.28;24.80;;;2.50;99.40;;;;;;4992087;28;20450;-61
2021/12/03 07:58:13;;;;;;;44.63;24.38;;;2.60;90.20;;;;;;4991659;28;20457;-62
2021/12/03 08:00:41;;;;;;;43.08;22.45;;;2.50;49.70;;;;;;4990965;28;20430;-61
2021/12/03 08:03:08;;;;;;;41.88;22.15;;;2.50;36.00;;;;;;4990640;28;20423;-62
2021/12/03 08:05:36;;;;;;;38.58;22.50;;;2.60;27.30;;;;;;4991102;28;20472;-62
2021/12/03 08:08:03;;;;;;;38.70;20.60;;;2.50;1.00;;;;;;4990133;28;20448;-62
2021/12/03 08:10:30;;;;;;;37.63;21.65;;;2.50;1.00;;;;;;4990795;28;20514;-62
2021/12/03 08:12:57;;;;;;;35.10;19.88;;;2.50;1.00;;;;;;4990498;28;20418;-61
2021/12/03 08:15:23;;;;;;;40.08;19.25;;;2.50;1.00;;;;;;4990668;28;20501;-62
2021/12/03 08:17:51;;;;;;;31.23;18.10;;;2.60;1.00;;;;;;4990800;28;20468;-62
2021/12/03 08:20:18;;;;;;;28.90;16.05;;;2.70;1.00;;;;;;4991277;28;20756;-62
2021/12/03 08:22:46;;;;;;;31.55;15.70;;;2.70;1.00;;;;;;4990292;28;20423;-62
2021/12/03 08:25:13;;;;;;;28.90;15.27;;;2.60;1.00;;;;;;4990537;28;20874;-62
2021/12/03 08:27:41;;;;;;;29.05;15.35;;;2.60;1.00;;;;;;4990526;28;20418;-62
2021/12/03 08:30:11;;;;;;;31.13;14.37;;;2.60;1.00;;;;;;4990839;28;20524;-62
2021/12/03 08:32:38;;;;;;;28.25;13.02;;;2.70;1.00;;;;;;4990229;28;20918;-60
2021/12/03 08:35:05;;;;;;;26.05;11.93;;;2.80;1.00;;;;;;4990725;28;20421;-60
2021/12/03 08:37:32;;;;;;;20.63;10.52;;;2.90;1.00;;;;;;4991004;28;20435;-63
2021/12/03 08:40:00;;;;;;;24.77;10.80;;;2.80;1.00;;;;;;4990715;28;20794;-60
2021/12/03 08:42:27;;;;;;;20.80;9.98;;;2.90;1.00;;;;;;4990210;28;20421;-61
2021/12/03 08:44:54;;;;;;;22.38;10.45;;;2.90;1.00;;;;;;4990555;28;20422;-64
2021/12/03 08:47:20;;;;;;;20.92;9.73;;;2.80;1.00;;;;;;4994303;28;20422;-61
2021/12/03 08:49:49;;;;;;;20.80;8.85;;;2.80;1.00;;;;;;4994270;28;20425;-62
2021/12/03 08:52:29;;;;;;;17.87;9.00;;;2.90;1.00;;;;;;4993582;28;20422;-62
2021/12/03 08:54:55;;;;;;;19.20;9.68;;;2.90;1.00;;;;;;4994401;28;20453;-61
2021/12/03 08:57:25;;;;;;;23.48;9.10;;;2.80;1.00;;;;;;4994184;28;20413;-61
2021/12/03 08:59:53;;;;;;;21.00;8.85;;;2.80;1.00;;;;;;4994450;28;20434;-62
2021/12/03 09:02:20;;;;;;;19.65;8.65;;;2.70;1.00;;;;;;4994011;28;20764;-60
2021/12/03 09:04:48;;;;;;;19.80;9.20;;;2.80;1.00;;;;;;4994104;28;20426;-60
2021/12/03 09:07:14;;;;;;;23.17;8.75;;;2.80;1.00;;;;;;4994570;28;20426;-60
2021/12/03 09:09:41;;;;;;;20.17;9.05;;;2.90;1.00;;;;;;4994256;28;20417;-57
2021/12/03 09:12:08;;;;;;;17.10;8.98;;;2.90;1.00;;;;;;4994285;28;20506;-64
2021/12/03 09:14:39;;;;;;;17.77;8.68;;;2.90;1.00;;;;;;4994764;28;20418;-66
2021/12/03 09:17:20;;;;;;;19.15;8.48;;;3.00;1.00;;;;;;4993708;28;20453;-64
2021/12/03 09:19:53;;;;;;;18.02;8.05;;;3.10;1.00;;;;;;4997567;28;20459;-62
2021/12/03 09:22:29;;;;;;;18.77;7.40;;;3.00;1.00;;;;;;5013075;28;20428;-62
2021/12/03 09:24:56;;;;;;;17.42;7.00;;;3.00;1.00;;;;;;5013556;28;20507;-61
2021/12/03 09:27:23;;;;;;;19.17;6.43;;;3.00;1.00;;;;;;5012969;28;20421;-60
2021/12/03 09:29:54;;;;;;;19.90;6.35;;;3.00;1.00;;;;;;5013033;28;20412;-59
2021/12/03 09:32:23;;;;;;;19.13;6.82;;;3.10;1.00;;;;;;5013269;28;20431;-61
2021/12/03 09:34:50;;;;;;;17.33;6.28;;;3.20;1.00;;;;;;5013136;28;20853;-60
2021/12/03 09:37:17;;;;;;;14.95;5.93;;;3.10;1.00;;;;;;5013214;28;20483;-61
2021/12/03 09:39:45;;;;;;;17.50;6.68;;;3.00;1.00;;;;;;5012601;28;20424;-59
2021/12/03 09:42:13;;;;;;;19.00;6.47;;;3.00;1.00;;;;;;5012423;28;20450;-57
2021/12/03 09:44:40;;;;;;;15.13;6.20;;;3.00;1.00;;;;;;5012584;28;20447;-58
2021/12/03 09:47:08;;;;;;;18.17;6.55;;;3.00;1.00;;;;;;5012954;28;20417;-59
2021/12/03 09:49:37;;;;;;;18.33;6.67;;;3.00;1.00;;;;;;5012796;28;20442;-58
2021/12/03 09:52:12;;;;;;;19.45;7.05;;;3.10;1.00;;;;;;5012217;28;20968;-60
2021/12/03 09:54:41;;;;;;;14.93;6.50;;;3.20;1.00;;;;;;5012237;28;20417;-60
2021/12/03 09:57:11;;;;;;;16.05;6.47;;;3.10;1.00;;;;;;5012490;28;20786;-51
2021/12/03 10:00:01;;;;;;;12.60;5.97;;;3.10;1.00;;;;;;5012548;28;20833;-54
2021/12/03 10:02:49;;;;;;;16.92;6.00;;;3.10;1.00;;;;;;5012028;28;20421;-56
2021/12/03 10:13:38;;;;;;;14.05;5.85;;;3.10;1.00;;;;;;5012023;28;20833;-57
2021/12/03 10:16:16;;;;;;;17.52;6.63;;;3.30;1.00;;;;;;5012314;28;20929;-56
2021/12/03 10:18:48;;;;;;;17.52;5.95;;;3.20;1.00;;;;;;5011871;28;20417;-58
2021/12/03 10:21:40;;;;;;;14.10;5.37;;;3.30;1.00;;;;;;5011775;28;20428;-60
2021/12/03 10:30:14;;;;;;;14.57;5.25;;;3.30;1.00;;;;;;5011946;28;20454;-58
2021/12/03 10:32:56;;;;;;;19.30;5.68;;;3.30;1.00;;;;;;5011725;28;20417;-58
2021/12/03 10:38:35;;;;;;;16.33;5.22;;;3.50;1.00;;;;;;5011395;28;20407;-62
2021/12/03 10:41:18;;;;;;;19.70;6.22;;;3.40;1.00;;;;;;5011943;28;20433;-62
2021/12/03 10:43:58;;;;;;;12.88;4.70;;;3.40;1.00;;;;;;5012053;28;20425;-63
2021/12/03 10:46:42;;;;;;;10.73;4.90;;;3.40;1.00;;;;;;5011899;28;20424;-61
2021/12/03 10:52:02;;;;;;;11.50;4.65;;;3.50;1.00;;;;;;5008265;28;20405;-60
2021/12/03 10:57:50;;;;;;;12.70;4.55;;;3.50;1.00;;;;;;4951061;29;20409;-59
2021/12/03 11:06:26;;;;;;;12.65;4.60;;;3.60;1.00;;;;;;4986106;28;20439;-61
2021/12/03 11:47:18;;;;;;;15.43;4.72;;;3.60;99.90;;;;;;4991354;28;20405;-59
2021/12/03 13:19:01;;;;;;;10.15;3.67;;;4.00;99.90;;;;;;4933172;29;20430;-59
2021/12/03 13:27:34;;;;;;;9.50;4.15;;;4.00;99.90;;;;;;4993739;28;20414;-59
2021/12/03 14:09:40;;;;;;;7.03;3.25;;;4.20;99.90;;;;;;4973395;28;20474;-60
2021/12/03 14:40:48;;;;;;;7.82;3.38;;;4.00;99.90;;;;;;4913209;29;20496;-60
2021/12/03 14:43:35;;;;;;;6.55;3.10;;;4.00;99.90;;;;;;4947373;28;20445;-60
2021/12/03 14:49:26;;;;;;;5.85;3.33;;;4.10;99.90;;;;;;4912761;29;20786;-59
2021/12/03 14:52:03;;;;;;;5.43;3.17;;;4.00;99.90;;;;;;4948922;28;20433;-59
2021/12/03 14:57:36;;;;;;;7.15;3.00;;;4.00;99.90;;;;;;4952929;29;20420;-60
2021/12/03 15:00:18;;;;;;;6.43;3.50;;;4.00;99.90;;;;;;4958275;28;20421;-61
2021/12/03 15:05:53;;;;;;;7.65;3.45;;;4.00;99.90;;;;;;4988660;28;20913;-61
2021/12/03 15:08:26;;;;;;;7.43;3.60;;;3.90;99.90;;;;;;4991889;28;20517;-60
2021/12/03 15:24:53;;;;;;;9.65;4.20;;;3.40;99.90;;;;;;4974467;28;20426;-61
2021/12/03 15:33:03;;;;;;;8.95;4.53;;;3.20;99.90;;;;;;4971819;28;20442;-61
2021/12/03 15:35:37;;;;;;;6.57;4.43;;;3.20;99.90;;;;;;4972480;28;20420;-59
2021/12/03 15:38:24;;;;;;;8.23;4.82;;;3.10;1.00;;;;;;4971748;28;20521;-61
2021/12/03 15:41:26;;;;;;;8.60;4.70;;;3.10;1.00;;;;;;4972059;28;20432;-61
2021/12/03 16:03:35;;;;;;;11.27;7.28;;;2.80;1.00;;;;;;5022420;28;20400;-62
2021/12/03 16:06:29;;;;;;;12.93;7.45;;;2.70;1.00;;;;;;5011111;28;20435;-62
2021/12/03 16:09:00;;;;;;;12.15;7.28;;;2.60;1.00;;;;;;5010563;28;20467;-61
2021/12/03 16:11:41;;;;;;;10.95;7.18;;;2.70;1.00;;;;;;5010460;28;20482;-62
2021/12/03 16:14:32;;;;;;;11.20;7.13;;;2.70;1.00;;;;;;5010556;28;20428;-62
2021/12/03 16:17:20;;;;;;;14.05;8.27;;;2.70;1.00;;;;;;5010772;28;20424;-62
2021/12/03 16:22:48;;;;;;;13.00;7.85;;;2.60;1.00;;;;;;5010483;28;20786;-63
2021/12/03 16:44:57;;;;;;;11.60;7.93;;;2.60;99.90;;;;;;5010271;28;20407;-61
2021/12/03 16:47:34;;;;;;;11.13;7.80;;;2.60;97.70;;;;;;5009786;28;20955;-60
2021/12/03 16:53:19;;;;;;;11.30;8.23;;;2.70;74.60;;;;;;5043323;22;20773;-60
2021/12/03 16:55:56;;;;;;;12.68;7.25;;;2.60;81.60;;;;;;4989121;28;20497;-60
2021/12/03 16:58:22;;;;;;;9.45;7.45;;;2.60;93.50;;;;;;4990624;28;20415;-61
2021/12/03 17:00:55;;;;;;;10.02;7.45;;;2.70;79.20;;;;;;4990426;28;20425;-61
2021/12/03 17:03:25;;;;;;;10.27;7.33;;;2.70;66.10;;;;;;4990354;28;20555;-61
2021/12/03 17:11:34;;;;;;;7.78;6.50;;;2.80;29.30;;;;;;4994503;28;20406;-61
2021/12/03 17:14:10;;;;;;;7.95;6.30;;;2.80;10.10;;;;;;4998751;28;20897;-61
2021/12/03 17:17:07;;;;;;;9.50;6.97;;;2.70;18.60;;;;;;4998591;28;20891;-61
2021/12/03 17:44:59;;;;;;;9.05;5.95;;;2.70;44.90;;;;;;5087917;28;20442;-61
2021/12/03 17:50:12;;;;;;;10.13;7.07;;;2.70;59.10;;;;;;5084919;28;20826;-57
2021/12/03 17:53:06;;;;;;;9.73;7.07;;;2.70;67.10;;;;;;5087138;28;20403;-60
2021/12/03 17:58:23;;;;;;;11.30;6.88;;;2.70;88.20;;;;;;5074032;28;20888;-60
2021/12/03 18:00:55;;;;;;;11.23;7.43;;;2.80;91.60;;;;;;5087343;28;20426;-60
2021/12/03 18:03:29;;;;;;;8.93;7.00;;;2.70;83.80;;;;;;5087155;28;20415;-60
2021/12/03 18:06:20;;;;;;;10.38;7.10;;;2.80;82.20;;;;;;5087198;28;20415;-60
2021/12/03 18:08:52;;;;;;;12.15;7.88;;;2.70;82.90;;;;;;5086985;28;20451;-61
2021/12/03 18:14:31;;;;;;;11.23;7.65;;;2.80;88.60;;;;;;5076221;28;20461;-58
2021/12/03 18:45:07;;;;;;;12.68;8.27;;;2.80;47.90;;;;;;5072959;28;20418;-66
2021/12/03 18:47:56;;;;;;;13.00;7.78;;;2.90;62.40;;;;;;5073011;28;20503;-60
2021/12/03 18:53:16;;;;;;;10.85;7.18;;;2.90;1.00;;;;;;5072036;28;20448;-61
2021/12/03 18:55:45;;;;;;;8.85;7.43;;;2.90;1.00;;;;;;5073019;28;20508;-62
2021/12/03 18:58:12;;;;;;;10.73;7.38;;;2.90;1.00;;;;;;5072446;28;20416;-63
2021/12/03 19:00:42;;;;;;;11.65;7.78;;;2.90;1.00;;;;;;5071673;28;20502;-62
2021/12/03 19:03:18;;;;;;;10.13;7.55;;;3.00;1.00;;;;;;5072115;28;20411;-62
2021/12/03 19:05:56;;;;;;;12.07;8.05;;;2.90;1.00;;;;;;5072645;28;20473;-62
2021/12/03 19:08:33;;;;;;;10.07;7.32;;;2.90;1.00;;;;;;5072345;28;20415;-62
2021/12/03 19:11:05;;;;;;;10.43;7.55;;;2.90;1.00;;;;;;5072129;28;20420;-61